createdAt,value
2023-03-05T07:33:34.148Z,90.74
2023-03-05T07:34:36.224Z,90.84
2023-03-05T07:35:34.776Z,90.74
2023-03-05T07:36:35.335Z,90.53
2023-03-05T07:37:35.361Z,90.50
2023-03-05T07:38:35.630Z,90.39
2023-03-05T07:39:35.864Z,90.29
2023-03-05T07:40:36.065Z,90.08
2023-03-05T07:41:36.348Z,89.98
2023-03-05T07:42:36.586Z,89.94
2023-03-05T07:43:36.760Z,89.83
2023-03-05T07:44:37.195Z,89.83
2023-03-05T07:45:37.415Z,89.83
2023-03-05T07:46:37.769Z,89.52
2023-03-05T07:47:38.105Z,89.38
2023-03-05T07:48:38.317Z,89.07
2023-03-05T07:49:38.674Z,88.76
2023-03-05T07:50:38.931Z,88.71
2023-03-05T07:51:39.188Z,88.51
2023-03-05T07:52:39.409Z,87.99
2023-03-05T07:53:39.727Z,87.89
2023-03-05T07:54:40.024Z,87.68
2023-03-05T07:55:40.219Z,87.58
2023-03-05T07:56:40.439Z,87.48
2023-03-05T07:57:40.705Z,87.23
2023-03-05T07:58:41.055Z,87.13
2023-03-05T07:59:41.385Z,87.13
2023-03-05T08:00:41.580Z,87.02
2023-03-05T08:01:41.858Z,86.92
2023-03-05T08:02:42.058Z,86.68
2023-03-05T08:03:42.343Z,86.47
2023-03-05T08:04:42.566Z,86.26
2023-03-05T08:05:42.897Z,86.16
2023-03-05T08:06:43.221Z,85.85
2023-03-05T08:07:43.471Z,85.60
2023-03-05T08:08:43.839Z,85.39
2023-03-05T08:09:44.145Z,85.50
2023-03-05T08:10:44.324Z,85.60
2023-03-05T08:11:44.550Z,85.64
2023-03-05T08:12:44.779Z,85.54
2023-03-05T08:13:45.044Z,85.54
2023-03-05T08:14:45.428Z,85.75
2023-03-05T08:15:45.711Z,85.95
2023-03-05T08:16:48.261Z,86.05
2023-03-05T08:17:46.206Z,86.05
2023-03-05T08:18:46.558Z,86.16
2023-03-05T08:19:46.866Z,86.26
2023-03-05T08:20:47.344Z,86.47
2023-03-05T08:21:47.456Z,86.36
2023-03-05T08:22:47.717Z,86.30
2023-03-05T08:23:47.931Z,86.20
2023-03-05T08:24:48.240Z,85.99
2023-03-05T08:25:48.496Z,85.89
2023-03-05T08:26:48.808Z,85.89
2023-03-05T08:27:49.065Z,85.78
2023-03-05T08:28:49.437Z,85.99
2023-03-05T08:29:49.669Z,86.10
2023-03-05T08:30:49.876Z,85.89
2023-03-05T08:31:50.118Z,85.68
2023-03-05T08:32:50.445Z,85.89
2023-03-05T08:33:50.673Z,85.89
2023-03-05T08:34:50.942Z,85.62
2023-03-05T08:35:51.196Z,85.41
2023-03-05T08:36:51.398Z,85.31
2023-03-05T08:37:51.723Z,85.41
2023-03-05T08:38:51.991Z,85.52
2023-03-05T08:39:52.321Z,85.83
2023-03-05T08:40:52.541Z,85.52
2023-03-05T08:41:52.876Z,85.21
2023-03-05T08:42:53.197Z,85.31
2023-03-05T08:43:53.491Z,85.21
2023-03-05T08:44:53.725Z,85.31
2023-03-05T08:45:53.929Z,85.21
2023-03-05T08:46:54.264Z,85.10
2023-03-05T08:47:54.595Z,85.31
2023-03-05T08:48:54.931Z,85.52
2023-03-05T08:49:55.286Z,85.72
2023-03-05T08:50:55.471Z,85.72
2023-03-05T08:51:55.724Z,85.72
2023-03-05T08:52:55.964Z,85.52
2023-03-05T08:53:56.199Z,85.52
2023-03-05T08:54:56.560Z,85.41
2023-03-05T08:55:56.739Z,85.21
2023-03-05T08:56:56.989Z,84.89
2023-03-05T08:57:57.202Z,85.00
2023-03-05T08:58:57.461Z,85.10
2023-03-05T08:59:57.709Z,85.21
2023-03-05T09:00:57.956Z,85.31
2023-03-05T09:01:58.292Z,85.31
2023-03-05T09:02:58.585Z,85.41
2023-03-05T09:03:58.808Z,85.68
2023-03-05T09:04:59.158Z,85.99
2023-03-05T09:05:59.385Z,85.89
2023-03-05T09:06:59.682Z,85.58
2023-03-05T09:07:59.930Z,85.58
2023-03-05T09:09:00.259Z,85.78
2023-03-05T09:10:00.630Z,85.58
2023-03-05T09:11:00.811Z,85.37
2023-03-05T09:12:01.099Z,85.64
2023-03-05T09:13:01.356Z,85.54
2023-03-05T09:14:01.626Z,85.33
2023-03-05T09:15:01.822Z,85.44
2023-03-05T09:16:02.185Z,85.33
2023-03-05T09:17:02.409Z,85.23
2023-03-05T09:18:02.751Z,85.13
2023-03-05T09:19:02.966Z,84.72
2023-03-05T09:20:03.333Z,84.27
2023-03-05T09:21:03.532Z,84.27
2023-03-05T09:22:03.867Z,84.36
2023-03-05T09:23:04.162Z,84.36
2023-03-05T09:24:04.438Z,84.47
2023-03-05T09:25:04.797Z,84.27
2023-03-05T09:26:05.073Z,84.27
2023-03-05T09:27:05.306Z,84.36
2023-03-05T09:28:05.629Z,84.47
2023-03-05T09:29:05.852Z,84.36
2023-03-05T09:30:06.159Z,84.16
2023-03-05T09:31:06.356Z,84.06
2023-03-05T09:32:06.669Z,83.75
2023-03-05T09:33:06.911Z,83.44
2023-03-05T09:34:07.196Z,83.44
2023-03-05T09:35:07.420Z,83.33
2023-03-05T09:36:07.638Z,83.44
2023-03-05T09:37:07.966Z,83.64
2023-03-05T09:38:08.308Z,83.75
2023-03-05T09:39:08.609Z,84.06
2023-03-05T09:40:08.949Z,83.95
2023-03-05T09:41:09.132Z,83.85
2023-03-05T09:42:10.361Z,84.16
2023-03-05T09:43:09.751Z,83.68
2023-03-05T09:44:10.018Z,83.68
2023-03-05T09:45:10.357Z,83.99
2023-03-05T09:46:10.610Z,84.30
2023-03-05T09:47:10.841Z,84.20
2023-03-05T09:48:11.093Z,84.30
2023-03-05T09:49:11.315Z,84.30
2023-03-05T09:50:11.571Z,84.72
2023-03-05T09:51:11.902Z,85.02
2023-03-05T09:52:12.278Z,85.23
2023-03-05T09:53:12.489Z,85.33
2023-03-05T09:54:12.788Z,85.54
2023-03-05T09:55:13.052Z,84.88
2023-03-05T09:56:13.360Z,83.75
2023-03-05T09:57:13.601Z,83.44
2023-03-05T09:58:13.847Z,83.23
2023-03-05T09:59:14.086Z,82.98
2023-03-05T10:00:14.322Z,82.74
2023-03-05T10:01:14.595Z,82.23
2023-03-05T10:02:14.830Z,81.57
2023-03-05T10:03:15.118Z,81.02
2023-03-05T10:04:15.336Z,53.74
2023-03-05T10:05:15.566Z,53.42
2023-03-05T10:06:15.753Z,53.17
2023-03-05T10:07:15.978Z,50.83
2023-03-05T10:08:16.229Z,50.00
2023-03-05T10:09:16.474Z,52.35
2023-03-05T10:10:17.063Z,51.57
2023-03-05T10:11:17.035Z,50.40
2023-03-05T10:12:17.298Z,59.05
2023-03-05T10:13:17.627Z,50.08
2023-03-05T10:14:17.942Z,59.28
2023-03-05T10:15:18.251Z,50.01
2023-03-05T10:16:18.517Z,50.01
2023-03-05T10:17:18.715Z,50.02
2023-03-05T10:18:19.023Z,50.44
2023-03-05T10:19:19.272Z,50.83
2023-03-05T10:20:19.703Z,50.20
2023-03-05T10:21:19.841Z,50.79
2023-03-05T10:22:20.121Z,51.28
2023-03-05T10:23:20.335Z,51.21
2023-03-05T10:24:20.594Z,50.05
2023-03-05T10:25:20.777Z,51.66
2023-03-05T10:26:21.001Z,51.56
2023-03-05T10:27:21.421Z,51.95
2023-03-05T10:28:21.647Z,52.00
2023-03-05T10:29:21.849Z,52.34
2023-03-05T10:30:22.135Z,53.12
2023-03-05T10:31:22.432Z,53.32
2023-03-05T10:32:22.757Z,54.81
2023-03-05T10:33:23.089Z,55.47
2023-03-05T10:34:23.412Z,55.91
2023-03-05T10:35:23.752Z,55.93
2023-03-05T10:36:24.294Z,56.25
2023-03-05T10:37:24.348Z,56.64
2023-03-05T10:38:24.688Z,56.46
2023-03-05T10:39:24.912Z,57.03
2023-03-05T10:40:25.183Z,56.46
2023-03-05T10:41:25.571Z,56.54
2023-03-05T10:42:25.804Z,56.54
2023-03-05T10:43:26.014Z,56.25
2023-03-05T10:44:26.307Z,55.52
2023-03-05T10:45:26.585Z,55.86
2023-03-05T10:46:26.793Z,55.87
2023-03-05T10:47:27.113Z,56.85
2023-03-05T10:48:27.379Z,57.23
2023-03-05T10:49:27.704Z,57.43
2023-03-05T10:50:28.029Z,81.89
2023-03-05T10:51:28.327Z,81.48
2023-03-05T10:52:28.652Z,81.68
2023-03-05T10:53:28.969Z,81.27
2023-03-05T10:54:29.222Z,81.89
2023-03-05T10:55:29.538Z,82.06
2023-03-05T10:56:29.755Z,81.79
2023-03-05T10:57:30.000Z,82.16
2023-03-05T10:58:30.266Z,81.75
2023-03-05T10:59:34.424Z,81.37
2023-03-05T11:00:30.862Z,81.99
2023-03-05T11:01:31.214Z,81.48
2023-03-05T11:02:31.573Z,80.86
2023-03-05T11:03:31.758Z,80.96
2023-03-05T11:04:32.115Z,80.76
2023-03-05T11:05:32.290Z,80.86
2023-03-05T11:06:32.521Z,81.27
2023-03-05T11:07:32.837Z,81.68
2023-03-05T11:08:33.192Z,81.82
2023-03-05T11:09:33.470Z,81.82
2023-03-05T11:10:33.822Z,81.62
2023-03-05T11:11:34.152Z,81.41
2023-03-05T11:12:34.491Z,81.72
2023-03-05T11:13:34.830Z,81.82
2023-03-05T11:14:35.114Z,81.89
2023-03-05T11:15:35.322Z,81.89
2023-03-05T11:16:35.614Z,82.40
2023-03-05T11:17:35.792Z,82.10
2023-03-05T11:18:36.050Z,81.89
2023-03-05T11:19:36.375Z,81.72
2023-03-05T11:20:36.713Z,82.14
2023-03-05T11:21:36.968Z,82.03
2023-03-05T11:22:37.167Z,81.93
2023-03-05T11:23:37.455Z,82.03
2023-03-05T11:24:37.830Z,81.82
2023-03-05T11:25:38.040Z,82.24
2023-03-05T11:26:38.394Z,82.24
2023-03-05T11:27:38.700Z,82.24
2023-03-05T11:28:39.051Z,82.24
2023-03-05T11:29:39.269Z,81.99
2023-03-05T11:30:39.608Z,82.20
2023-03-05T11:31:39.826Z,81.89
2023-03-05T11:32:40.092Z,81.89
2023-03-05T11:33:40.327Z,81.89
2023-03-05T11:34:40.628Z,82.10
2023-03-05T11:35:40.909Z,82.10
2023-03-05T11:36:41.154Z,81.27
2023-03-05T11:37:41.391Z,81.99
2023-03-05T11:38:41.587Z,82.71
2023-03-05T11:39:41.939Z,83.33
2023-03-05T11:40:42.163Z,83.85
2023-03-05T11:41:42.501Z,83.75
2023-03-05T11:42:42.803Z,83.95
2023-03-05T11:43:43.075Z,83.75
2023-03-05T11:44:43.375Z,83.64
2023-03-05T11:45:43.619Z,83.44
2023-03-05T11:46:44.010Z,83.61
2023-03-05T11:47:44.214Z,83.29
2023-03-05T11:48:44.536Z,83.19
2023-03-05T11:49:44.887Z,82.95
2023-03-05T11:50:45.103Z,82.84
2023-03-05T11:51:45.460Z,82.50
2023-03-05T11:52:45.679Z,81.98
2023-03-05T11:53:45.916Z,81.67
2023-03-05T11:54:46.187Z,56.34
2023-03-05T11:55:46.550Z,53.49
2023-03-05T11:56:50.970Z,53.12
2023-03-05T11:57:47.129Z,53.25
2023-03-05T11:58:47.457Z,53.14
2023-03-05T11:59:47.815Z,53.12
2023-03-05T12:00:48.121Z,53.12
2023-03-05T12:01:48.486Z,51.88
2023-03-05T12:02:48.849Z,51.74
2023-03-05T12:03:49.103Z,51.45
2023-03-05T12:04:49.312Z,53.20
2023-03-05T12:05:49.675Z,53.17
2023-03-05T12:06:49.985Z,53.17
2023-03-05T12:07:50.209Z,53.52
2023-03-05T12:08:50.541Z,53.12
2023-03-05T12:09:50.907Z,53.96
2023-03-05T12:10:51.206Z,53.91
2023-03-05T12:11:51.568Z,54.05
2023-03-05T12:12:51.857Z,54.10
2023-03-05T12:13:52.078Z,53.13
2023-03-05T12:14:52.323Z,53.14
2023-03-05T12:15:52.718Z,54.21
2023-03-05T12:16:52.982Z,53.91
2023-03-05T12:17:53.153Z,53.52
2023-03-05T12:18:53.472Z,53.22
2023-03-05T12:19:53.821Z,53.52
2023-03-05T12:20:54.180Z,53.91
2023-03-05T12:21:54.525Z,53.44
2023-03-05T12:22:54.811Z,53.64
2023-03-05T12:23:55.069Z,53.15
2023-03-05T12:24:55.347Z,53.12
2023-03-05T12:25:55.689Z,53.14
2023-03-05T12:26:56.110Z,79.93
2023-03-05T12:27:56.370Z,54.74
2023-03-05T12:28:56.692Z,53.43
2023-03-05T12:29:57.009Z,54.61
2023-03-05T12:30:57.315Z,54.32
2023-03-05T12:31:57.674Z,53.92
2023-03-05T12:32:58.013Z,54.30
2023-03-05T12:33:58.357Z,54.30
2023-03-05T12:34:58.644Z,53.92
2023-03-05T12:35:59.024Z,54.30
2023-03-05T12:36:59.365Z,54.00
2023-03-05T12:37:59.591Z,53.91
2023-03-05T12:38:59.928Z,53.25
2023-03-05T12:40:00.122Z,53.12
2023-03-05T12:41:00.411Z,51.17
2023-03-05T12:42:00.673Z,53.12
2023-03-05T12:43:00.863Z,51.20
2023-03-05T12:44:01.223Z,51.37
2023-03-05T12:45:01.432Z,51.48
2023-03-05T12:46:01.755Z,53.58
2023-03-05T12:47:02.146Z,53.19
2023-03-05T12:48:02.354Z,53.12
2023-03-05T12:49:02.694Z,53.12
2023-03-05T12:50:02.929Z,53.22
2023-03-05T12:51:03.261Z,53.19
2023-03-05T12:52:03.592Z,53.12
2023-03-05T12:53:03.897Z,53.23
2023-03-05T12:54:04.104Z,53.42
2023-03-05T12:55:04.482Z,54.69
2023-03-05T12:56:04.666Z,54.74
2023-03-05T12:57:04.935Z,54.70
2023-03-05T12:58:05.256Z,54.69
2023-03-05T12:59:05.500Z,54.69
2023-03-05T13:00:05.732Z,54.70
2023-03-05T13:01:06.060Z,54.69
2023-03-05T13:02:06.334Z,54.79
2023-03-05T13:03:06.592Z,54.71
2023-03-05T13:04:06.786Z,54.75
2023-03-05T13:05:07.014Z,54.69
2023-03-05T13:06:07.331Z,54.69
2023-03-05T13:07:07.592Z,54.98
2023-03-05T13:08:07.790Z,54.69
2023-03-05T13:09:08.087Z,54.79
2023-03-05T13:10:08.291Z,54.99
2023-03-05T13:11:08.527Z,79.93
2023-03-05T13:12:08.938Z,80.02
2023-03-05T13:13:09.161Z,80.23
2023-03-05T13:14:09.545Z,54.69
2023-03-05T13:15:09.734Z,54.99
2023-03-05T13:16:10.137Z,54.69
2023-03-05T13:17:10.357Z,54.69
2023-03-05T13:18:10.565Z,54.99
2023-03-05T13:19:10.894Z,54.88
2023-03-05T13:20:11.146Z,54.99
2023-03-05T13:21:11.383Z,54.69
2023-03-05T13:22:11.755Z,54.71
2023-03-05T13:23:11.951Z,55.11
2023-03-05T13:24:13.784Z,54.70
2023-03-05T13:25:12.570Z,55.11
2023-03-05T13:26:12.909Z,56.25
2023-03-05T13:27:13.117Z,56.49
2023-03-05T13:28:13.473Z,56.71
2023-03-05T13:29:13.691Z,56.49
2023-03-05T13:30:13.942Z,56.69
2023-03-05T13:31:14.207Z,56.76
2023-03-05T13:32:14.459Z,56.26
2023-03-05T13:33:14.650Z,56.37
2023-03-05T13:34:14.929Z,56.26
2023-03-05T13:35:15.253Z,56.26
2023-03-05T13:36:15.482Z,56.26
2023-03-05T13:37:15.957Z,56.27
2023-03-05T13:38:16.149Z,56.45
2023-03-05T13:39:16.814Z,54.72
2023-03-05T13:40:16.921Z,54.71
2023-03-05T13:41:16.990Z,54.81
2023-03-05T13:42:17.222Z,54.81
2023-03-05T13:43:17.975Z,56.25
2023-03-05T13:44:17.875Z,56.27
2023-03-05T13:45:18.058Z,56.27
2023-03-05T13:46:18.330Z,56.27
2023-03-05T13:47:18.987Z,56.77
2023-03-05T13:48:28.593Z,56.88
2023-03-05T13:49:20.286Z,56.88
2023-03-05T13:50:19.765Z,56.47
2023-03-05T13:51:20.055Z,54.38
2023-03-05T13:52:20.573Z,56.26
2023-03-05T13:53:20.383Z,54.19
2023-03-05T13:54:20.632Z,54.38
2023-03-05T13:55:20.890Z,54.38
2023-03-05T13:56:21.125Z,56.25
2023-03-05T13:57:21.385Z,56.26
2023-03-05T13:58:21.619Z,56.47
2023-03-05T13:59:21.850Z,56.37
2023-03-05T14:00:22.061Z,54.49
2023-03-05T14:01:22.439Z,54.28
2023-03-05T14:02:23.687Z,54.49
2023-03-05T14:03:23.039Z,54.49
2023-03-05T14:04:23.301Z,54.49
2023-03-05T14:05:23.573Z,56.26
2023-03-05T14:06:23.870Z,56.26
2023-03-05T14:07:25.155Z,56.26
2023-03-05T14:08:24.675Z,54.69
2023-03-05T14:09:24.643Z,54.69
2023-03-05T14:10:25.337Z,54.08
2023-03-05T14:11:25.387Z,53.98
2023-03-05T14:12:25.562Z,54.19
2023-03-05T14:13:25.835Z,54.77
2023-03-05T14:14:26.214Z,54.78
2023-03-05T14:15:26.369Z,54.69
2023-03-05T14:16:27.682Z,54.69
2023-03-05T14:17:28.016Z,54.69
2023-03-05T14:18:27.498Z,54.88
2023-03-05T14:19:27.705Z,54.88
2023-03-05T14:20:28.081Z,54.88
2023-03-05T14:21:28.233Z,54.88
2023-03-05T14:22:28.640Z,54.88
2023-03-05T14:23:28.765Z,54.88
2023-03-05T14:24:29.105Z,54.79
2023-03-05T14:25:29.404Z,54.88
2023-03-05T14:26:29.861Z,54.88
2023-03-05T14:27:29.996Z,54.71
2023-03-05T14:28:30.271Z,54.72
2023-03-05T14:29:30.638Z,54.71
2023-03-05T14:30:30.780Z,54.81
2023-03-05T14:31:31.031Z,55.08
2023-03-05T14:32:31.325Z,54.88
2023-03-05T14:33:31.556Z,54.88
2023-03-05T14:34:31.792Z,55.10
2023-03-05T14:35:32.144Z,56.49
2023-03-05T14:36:32.383Z,56.71
2023-03-05T14:37:32.772Z,56.81
2023-03-05T14:38:32.978Z,57.01
2023-03-05T14:39:33.235Z,56.34
2023-03-05T14:40:33.539Z,56.30
2023-03-05T14:41:34.005Z,56.30
2023-03-05T14:42:35.500Z,56.30
2023-03-05T14:43:34.538Z,55.51
2023-03-05T14:44:34.761Z,56.30
2023-03-05T14:45:35.100Z,56.60
2023-03-05T14:46:35.323Z,55.40
2023-03-05T14:47:35.718Z,55.40
2023-03-05T14:48:35.976Z,56.30
2023-03-05T14:49:36.222Z,56.30
2023-03-05T14:50:36.486Z,56.49
2023-03-05T14:51:36.739Z,56.30
2023-03-05T14:52:36.990Z,55.10
2023-03-05T14:53:37.270Z,55.10
2023-03-05T14:54:37.524Z,56.30
2023-03-05T14:55:37.771Z,56.30
2023-03-05T14:56:38.006Z,56.30
2023-03-05T14:57:38.290Z,56.49
2023-03-05T14:58:38.554Z,79.34
2023-03-05T14:59:38.786Z,53.57
2023-03-05T15:00:39.213Z,54.99
2023-03-05T15:01:39.446Z,54.86
2023-03-05T15:02:39.749Z,56.35
2023-03-05T15:03:40.097Z,56.74
2023-03-05T15:04:40.314Z,56.25
2023-03-05T15:05:40.546Z,56.52
2023-03-05T15:06:40.868Z,56.27
2023-03-05T15:07:41.129Z,56.76
2023-03-05T15:08:41.423Z,58.01
2023-03-05T15:09:41.691Z,59.40
2023-03-05T15:10:41.989Z,59.40
2023-03-05T15:11:43.253Z,59.77
2023-03-05T15:12:42.670Z,60.95
2023-03-05T15:13:43.061Z,60.07
2023-03-05T15:14:43.253Z,60.96
2023-03-05T15:15:43.443Z,60.99
2023-03-05T15:16:43.660Z,86.51
2023-03-05T15:17:43.923Z,86.61
2023-03-05T15:18:44.132Z,86.82
2023-03-05T15:19:45.443Z,86.92
2023-03-05T15:20:44.876Z,86.82
2023-03-05T15:21:45.024Z,86.71
2023-03-05T15:22:45.881Z,86.61
2023-03-05T15:23:45.575Z,86.71
2023-03-05T15:24:45.803Z,86.78
2023-03-05T15:25:46.292Z,86.68
2023-03-05T15:26:46.623Z,86.26
2023-03-05T15:27:46.934Z,86.16
2023-03-05T15:28:47.432Z,86.05
2023-03-05T15:29:47.207Z,86.16
2023-03-05T15:30:47.653Z,86.16
2023-03-05T15:31:47.744Z,86.36
2023-03-05T15:32:48.162Z,86.68
2023-03-05T15:33:48.413Z,86.68
2023-03-05T15:34:48.651Z,86.78
2023-03-05T15:35:48.935Z,87.02
2023-03-05T15:36:49.246Z,87.23
2023-03-05T15:37:49.516Z,87.44
2023-03-05T15:38:49.796Z,87.95
2023-03-05T15:39:50.031Z,88.26
2023-03-05T15:40:50.461Z,88.57
2023-03-05T15:41:50.520Z,88.98
2023-03-05T15:42:50.811Z,89.09
2023-03-05T15:43:51.098Z,89.40
2023-03-05T15:44:51.706Z,89.71
2023-03-05T15:46:01.647Z,90.37
2023-03-05T15:46:51.943Z,90.16
2023-03-05T15:47:52.291Z,90.16
2023-03-05T15:48:52.567Z,90.37
2023-03-05T15:49:53.258Z,90.68
2023-03-05T15:50:53.071Z,91.24
2023-03-05T15:51:53.330Z,91.65
2023-03-05T15:52:53.550Z,91.86
2023-03-05T15:53:53.779Z,91.96
2023-03-05T15:54:54.149Z,92.27
2023-03-05T15:55:54.428Z,92.48
2023-03-05T15:56:54.700Z,92.68
2023-03-05T15:57:54.938Z,92.68
2023-03-05T15:58:59.237Z,92.68
2023-03-05T15:59:55.454Z,92.89
2023-03-05T16:00:55.788Z,92.89
2023-03-05T16:01:56.099Z,92.83
2023-03-05T16:02:56.482Z,92.93
2023-03-05T16:03:56.541Z,93.04
2023-03-05T16:04:56.834Z,93.10
2023-03-05T16:05:57.175Z,93.10
2023-03-05T16:06:57.404Z,93.62
2023-03-05T16:07:57.735Z,93.62
2023-03-05T16:08:58.038Z,93.62
2023-03-05T16:09:58.233Z,93.51
2023-03-05T16:10:58.564Z,93.62
2023-03-05T16:11:58.756Z,93.62
2023-03-05T16:12:59.112Z,93.82
2023-03-05T16:13:59.660Z,94.03
2023-03-05T16:14:59.753Z,94.13
2023-03-05T16:16:00.256Z,94.09
2023-03-05T16:17:00.333Z,94.13
2023-03-05T16:18:01.003Z,94.29
2023-03-05T16:19:01.086Z,94.40
2023-03-05T16:20:01.353Z,94.19
2023-03-05T16:21:01.625Z,93.98
2023-03-05T16:22:01.846Z,93.68
2023-03-05T16:23:02.167Z,93.41
2023-03-05T16:24:02.385Z,93.20
2023-03-05T16:25:02.742Z,92.89
2023-03-05T16:26:03.046Z,92.79
2023-03-05T16:27:03.412Z,92.68
2023-03-05T16:28:03.666Z,92.58
2023-03-05T16:29:03.890Z,92.27
2023-03-05T16:30:04.247Z,92.07
2023-03-05T16:31:04.486Z,91.96
2023-03-05T16:32:04.779Z,91.65
2023-03-05T16:33:05.015Z,89.89
2023-03-05T16:34:05.406Z,90.20
2023-03-05T16:35:05.805Z,90.83
2023-03-05T16:36:05.805Z,90.83
2023-03-05T16:37:06.049Z,90.93
2023-03-05T16:38:06.285Z,91.24
2023-03-05T16:39:06.544Z,91.44
2023-03-05T16:40:06.731Z,91.75
2023-03-05T16:41:08.728Z,91.86
2023-03-05T16:42:07.296Z,91.86
2023-03-05T16:43:07.534Z,91.86
2023-03-05T16:44:07.735Z,91.86
2023-03-05T16:45:08.143Z,91.86
2023-03-05T16:46:08.393Z,91.96
2023-03-05T16:47:08.688Z,91.86
2023-03-05T16:48:08.946Z,91.86
2023-03-05T16:49:09.175Z,91.75
2023-03-05T16:50:09.410Z,91.86
2023-03-05T16:51:09.727Z,92.17
2023-03-05T16:52:18.624Z,92.17
2023-03-05T16:53:11.319Z,92.27
2023-03-05T16:54:10.597Z,92.27
2023-03-05T16:55:10.979Z,92.17
2023-03-05T16:56:11.171Z,91.44
2023-03-05T16:57:11.598Z,91.24
2023-03-05T16:58:11.824Z,90.93
2023-03-05T16:59:12.316Z,90.72
2023-03-05T17:00:12.366Z,90.62
2023-03-05T17:01:12.900Z,90.66
2023-03-05T17:02:13.003Z,90.87
2023-03-05T17:03:13.351Z,90.97
2023-03-05T17:04:13.629Z,91.07
2023-03-05T17:05:13.886Z,91.17
2023-03-05T17:06:14.195Z,91.17
2023-03-05T17:07:14.311Z,91.69
2023-03-05T17:08:14.794Z,94.13
2023-03-05T17:09:14.997Z,93.82
2023-03-05T17:10:15.179Z,93.82
2023-03-05T17:11:15.719Z,93.66
2023-03-05T17:12:15.835Z,93.24
2023-03-05T17:13:16.326Z,92.93
2023-03-05T17:14:16.322Z,92.72
2023-03-05T17:15:16.579Z,93.51
2023-03-05T17:16:16.922Z,93.20
2023-03-05T17:17:17.091Z,93.30
2023-03-05T17:18:17.510Z,92.79
2023-03-05T17:19:17.745Z,92.27
2023-03-05T17:20:17.926Z,92.07
2023-03-05T17:21:18.330Z,91.75
2023-03-05T17:22:18.714Z,91.65
2023-03-05T17:23:18.808Z,91.65
2023-03-05T17:24:20.167Z,91.55
2023-03-05T17:25:19.585Z,92.07
2023-03-05T17:26:19.810Z,91.86
2023-03-05T17:27:19.947Z,91.55
2023-03-05T17:28:20.315Z,91.34
2023-03-05T17:29:20.507Z,91.13
2023-03-05T17:30:20.860Z,91.24
2023-03-05T17:31:21.248Z,91.24
2023-03-05T17:32:21.529Z,91.03
2023-03-05T17:33:21.825Z,91.07
2023-03-05T17:34:33.187Z,91.07
2023-03-05T17:35:23.435Z,90.97
2023-03-05T17:36:22.696Z,90.97
2023-03-05T17:37:23.000Z,90.97
2023-03-05T17:38:23.424Z,91.17
2023-03-05T17:39:23.662Z,91.38
2023-03-05T17:40:23.848Z,91.49
2023-03-05T17:41:24.198Z,91.49
2023-03-05T17:42:24.576Z,91.90
2023-03-05T17:43:24.827Z,91.69
2023-03-05T17:44:25.077Z,91.69
2023-03-05T17:45:25.378Z,91.69
2023-03-05T17:46:25.643Z,91.59
2023-03-05T17:47:25.854Z,91.59
2023-03-05T17:48:26.202Z,91.69
2023-03-05T17:49:26.419Z,91.69
2023-03-05T17:50:26.757Z,91.80
2023-03-05T17:51:27.004Z,91.69
2023-03-05T17:52:27.275Z,91.59
2023-03-05T17:53:27.472Z,91.59
2023-03-05T17:54:27.864Z,91.49
2023-03-05T17:55:28.037Z,91.38
2023-03-05T17:56:28.408Z,91.32
2023-03-05T17:57:28.664Z,91.32
2023-03-05T17:58:28.859Z,91.53
2023-03-05T17:59:29.177Z,91.74
2023-03-05T18:00:29.530Z,91.63
2023-03-05T18:01:29.877Z,91.63
2023-03-05T18:02:30.047Z,91.74
2023-03-05T18:03:30.329Z,91.74
2023-03-05T18:04:30.636Z,92.15
2023-03-05T18:05:30.827Z,92.36
2023-03-05T18:06:31.214Z,92.36
2023-03-05T18:07:31.489Z,92.46
2023-03-05T18:08:31.763Z,92.50
2023-03-05T18:09:31.977Z,92.50
2023-03-05T18:10:32.364Z,92.61
2023-03-05T18:11:36.754Z,92.81
2023-03-05T18:12:32.975Z,93.12
2023-03-05T18:13:33.235Z,93.12
2023-03-05T18:14:33.508Z,93.02
2023-03-05T18:15:33.709Z,92.91
2023-03-05T18:16:34.117Z,92.81
2023-03-05T18:17:34.356Z,92.81
2023-03-05T18:18:34.638Z,93.12
2023-03-05T18:19:34.835Z,93.33
2023-03-05T18:20:35.148Z,93.23
2023-03-05T18:21:35.515Z,93.12
2023-03-05T18:22:35.795Z,93.12
2023-03-05T18:23:36.037Z,93.12
2023-03-05T18:24:36.326Z,93.43
2023-03-05T18:25:36.714Z,93.43
2023-03-05T18:26:36.896Z,93.54
2023-03-05T18:27:37.126Z,93.64
2023-03-05T18:28:37.498Z,93.85
2023-03-05T18:29:37.713Z,94.06
2023-03-05T18:30:38.295Z,94.06
2023-03-05T18:31:38.328Z,94.16
2023-03-05T18:32:38.690Z,94.06
2023-03-05T18:33:38.963Z,93.85
2023-03-05T18:34:39.286Z,93.54
2023-03-05T18:35:39.514Z,93.85
2023-03-05T18:36:39.710Z,94.06
2023-03-05T18:37:40.079Z,94.06
2023-03-05T18:38:40.353Z,94.06
2023-03-05T18:39:40.640Z,94.06
2023-03-05T18:40:41.014Z,94.06
2023-03-05T18:41:41.076Z,94.16
2023-03-05T18:42:41.436Z,94.16
2023-03-05T18:43:41.668Z,94.16
2023-03-05T18:44:41.935Z,94.16
2023-03-05T18:45:42.305Z,94.06
2023-03-05T18:46:42.484Z,93.85
2023-03-05T18:47:42.844Z,93.74
2023-03-05T18:48:43.123Z,93.74
2023-03-05T18:49:43.352Z,93.74
2023-03-05T18:50:43.604Z,93.89
2023-03-05T18:51:43.839Z,93.85
2023-03-05T18:52:44.165Z,93.95
2023-03-05T18:53:44.572Z,94.06
2023-03-05T18:54:44.789Z,94.06
2023-03-05T18:55:45.358Z,94.16
2023-03-05T18:56:45.405Z,94.20
2023-03-05T18:57:45.737Z,94.16
2023-03-05T18:58:46.068Z,94.26
2023-03-05T18:59:46.387Z,94.20
2023-03-05T19:00:46.756Z,94.10
2023-03-05T19:01:47.004Z,94.20
2023-03-05T19:02:47.270Z,94.37
2023-03-05T19:03:47.607Z,94.51
2023-03-05T19:04:47.975Z,94.41
2023-03-05T19:05:48.177Z,94.31
2023-03-05T19:06:48.500Z,94.31
2023-03-05T19:07:48.793Z,94.31
2023-03-05T19:08:49.182Z,94.31
2023-03-05T19:09:49.501Z,94.31
2023-03-05T19:10:49.857Z,94.31
2023-03-05T19:11:50.149Z,94.31
2023-03-05T19:12:50.518Z,94.31
2023-03-05T19:13:50.847Z,94.31
2023-03-05T19:14:51.093Z,94.41
2023-03-05T19:15:51.397Z,94.62
2023-03-05T19:16:51.576Z,94.82
2023-03-05T19:17:51.887Z,94.72
2023-03-05T19:18:52.243Z,94.72
2023-03-05T19:19:52.587Z,94.72
2023-03-05T19:20:52.975Z,94.62
2023-03-05T19:21:53.202Z,94.72
2023-03-05T19:22:53.419Z,94.82
2023-03-05T19:23:53.772Z,94.82
2023-03-05T19:24:54.022Z,94.82
2023-03-05T19:25:54.204Z,94.72
2023-03-05T19:26:54.615Z,94.72
2023-03-05T19:27:54.825Z,94.72
2023-03-05T19:28:55.195Z,94.72
2023-03-05T19:30:03.094Z,94.51
2023-03-05T19:30:55.715Z,94.72
2023-03-05T19:31:55.905Z,94.62
2023-03-05T19:32:56.246Z,94.72
2023-03-05T19:33:56.704Z,94.62
2023-03-05T19:34:56.857Z,94.51
2023-03-05T19:35:57.353Z,94.41
2023-03-05T19:36:57.891Z,94.41
2023-03-05T19:38:05.359Z,94.31
2023-03-05T19:38:58.140Z,94.41
2023-03-05T19:39:58.400Z,94.51
2023-03-05T19:40:58.617Z,94.72
2023-03-05T19:41:58.947Z,94.72
2023-03-05T19:42:59.269Z,94.62
2023-03-05T19:43:59.634Z,94.72
2023-03-05T19:45:00.243Z,94.72
2023-03-05T19:46:00.244Z,94.82
2023-03-05T19:47:01.314Z,94.72
2023-03-05T19:48:00.699Z,94.62
2023-03-05T19:49:01.049Z,94.51
2023-03-05T19:50:01.289Z,94.31
2023-03-05T19:51:09.084Z,94.20
2023-03-05T19:52:01.864Z,94.20
2023-03-05T19:53:02.225Z,94.20
2023-03-05T19:54:02.536Z,94.31
2023-03-05T19:55:02.834Z,94.31
2023-03-05T19:56:03.095Z,94.51
2023-03-05T19:57:03.389Z,94.62
2023-03-05T19:58:03.759Z,94.62
2023-03-05T19:59:04.113Z,94.51
2023-03-05T20:00:04.353Z,94.51
2023-03-05T20:01:04.580Z,94.72
2023-03-05T20:02:04.776Z,94.62
2023-03-05T20:03:05.066Z,94.93
2023-03-05T20:04:05.452Z,94.93
2023-03-05T20:05:05.714Z,95.03
2023-03-05T20:06:05.901Z,95.14
2023-03-05T20:07:06.185Z,95.24
2023-03-05T20:08:06.532Z,95.24
2023-03-05T20:09:08.094Z,95.24
2023-03-05T20:10:07.236Z,95.28
2023-03-05T20:11:07.412Z,95.49
2023-03-05T20:12:07.682Z,95.70
2023-03-05T20:13:07.998Z,95.90
2023-03-05T20:14:08.400Z,95.90
2023-03-05T20:15:08.601Z,96.01
2023-03-05T20:16:08.937Z,96.21
2023-03-05T20:17:09.263Z,96.31
2023-03-05T20:18:10.063Z,96.42
2023-03-05T20:19:09.862Z,96.62
2023-03-05T20:20:10.173Z,96.62
2023-03-05T20:21:10.776Z,96.52
2023-03-05T20:22:11.028Z,96.62
2023-03-05T20:23:11.283Z,96.62
2023-03-05T20:24:11.443Z,96.83
2023-03-05T20:25:11.639Z,96.83
2023-03-05T20:26:12.058Z,96.73
2023-03-05T20:27:12.243Z,96.73
2023-03-05T20:28:12.614Z,96.83
2023-03-05T20:29:14.819Z,96.83